Terminal Aerodrome Forecast
Issued by NWS Charleston, WV

Current Version | Previous Version | Graphics & Text | Print | Product List | Glossary On
Versions: 1 2 3 4 5 6 7 8 9 10 11 12 13 14 15 16 17 18 19 20 21 22 23 24 25
000
FTUS41 KRLX 272343 RRA
TAFCRW
TAF
KCRW 272343Z 2800/2824 06004KT P6SM SCT050
     FM280300 00000KT P6SM SCT140
     FM280700 00000KT 4SM BR SCT060
     FM281000 00000KT 2SM BR SCT050
     FM281300 00000KT P6SM SCT045=

USA.gov is the U.S. government's official web portal to all federal, state and local government web resources and services.